sensor_id;sensor_type;location;lat;lon;timestamp;P1;durP1;ratioP1;P2;durP2;ratioP2
9234;SDS011;4652;42.716;23.218;2022-11-23T00:03:13;15.77;;;13.47;;
9234;SDS011;4652;42.716;23.218;2022-11-23T00:09:58;18.43;;;14.07;;
9234;SDS011;4652;42.716;23.218;2022-11-23T00:16:40;33.33;;;22.63;;
9234;SDS011;4652;42.716;23.218;2022-11-23T00:23:22;20.33;;;16.50;;
9234;SDS011;4652;42.716;23.218;2022-11-23T00:30:06;20.97;;;14.30;;
9234;SDS011;4652;42.716;23.218;2022-11-23T00:36:49;17.57;;;13.87;;
9234;SDS011;4652;42.716;23.218;2022-11-23T00:43:31;16.37;;;11.27;;
9234;SDS011;4652;42.716;23.218;2022-11-23T00:50:16;15.23;;;10.63;;
9234;SDS011;4652;42.716;23.218;2022-11-23T00:56:59;9.23;;;7.40;;
9234;SDS011;4652;42.716;23.218;2022-11-23T01:03:43;10.07;;;5.90;;
9234;SDS011;4652;42.716;23.218;2022-11-23T01:10:28;8.80;;;7.60;;
9234;SDS011;4652;42.716;23.218;2022-11-23T01:17:11;16.00;;;13.23;;
9234;SDS011;4652;42.716;23.218;2022-11-23T01:23:53;14.30;;;11.53;;
9234;SDS011;4652;42.716;23.218;2022-11-23T01:30:38;14.20;;;11.87;;
9234;SDS011;4652;42.716;23.218;2022-11-23T01:37:20;15.13;;;12.13;;
9234;SDS011;4652;42.716;23.218;2022-11-23T01:51:08;12.63;;;10.77;;
9234;SDS011;4652;42.716;23.218;2022-11-23T01:57:52;13.20;;;10.57;;
9234;SDS011;4652;42.716;23.218;2022-11-23T04:32:01;14.93;;;12.43;;
9234;SDS011;4652;42.716;23.218;2022-11-23T04:38:44;15.47;;;12.37;;
9234;SDS011;4652;42.716;23.218;2022-11-23T04:45:26;18.13;;;12.50;;
9234;SDS011;4652;42.716;23.218;2022-11-23T04:52:09;15.40;;;11.87;;
9234;SDS011;4652;42.716;23.218;2022-11-23T04:58:51;18.53;;;13.13;;
9234;SDS011;4652;42.716;23.218;2022-11-23T05:05:35;17.33;;;13.50;;
9234;SDS011;4652;42.716;23.218;2022-11-23T05:12:19;18.97;;;14.63;;
9234;SDS011;4652;42.716;23.218;2022-11-23T05:19:01;19.17;;;14.87;;
9234;SDS011;4652;42.716;23.218;2022-11-23T05:25:43;18.47;;;14.00;;
9234;SDS011;4652;42.716;23.218;2022-11-23T05:32:26;23.80;;;18.27;;
9234;SDS011;4652;42.716;23.218;2022-11-23T05:39:08;18.87;;;15.07;;
9234;SDS011;4652;42.716;23.218;2022-11-23T05:45:50;19.77;;;14.40;;
9234;SDS011;4652;42.716;23.218;2022-11-23T05:52:35;16.43;;;13.33;;
9234;SDS011;4652;42.716;23.218;2022-11-23T05:59:17;16.37;;;13.43;;
9234;SDS011;4652;42.716;23.218;2022-11-23T06:05:59;16.80;;;12.00;;
9234;SDS011;4652;42.716;23.218;2022-11-23T06:12:42;15.63;;;11.53;;
9234;SDS011;4652;42.716;23.218;2022-11-23T06:19:26;16.67;;;12.13;;
9234;SDS011;4652;42.716;23.218;2022-11-23T06:26:09;13.00;;;10.83;;
9234;SDS011;4652;42.716;23.218;2022-11-23T06:32:52;14.00;;;11.87;;
9234;SDS011;4652;42.716;23.218;2022-11-23T06:39:34;14.97;;;11.87;;
9234;SDS011;4652;42.716;23.218;2022-11-23T06:46:16;18.83;;;13.20;;
9234;SDS011;4652;42.716;23.218;2022-11-23T06:53:00;16.47;;;13.30;;
9234;SDS011;4652;42.716;23.218;2022-11-23T06:59:42;17.80;;;12.63;;
9234;SDS011;4652;42.716;23.218;2022-11-23T07:06:25;15.93;;;11.77;;
9234;SDS011;4652;42.716;23.218;2022-11-23T07:13:09;10.23;;;9.03;;
9234;SDS011;4652;42.716;23.218;2022-11-23T07:19:53;10.63;;;9.30;;
9234;SDS011;4652;42.716;23.218;2022-11-23T08:08:10;5.60;;;5.10;;
9234;SDS011;4652;42.716;23.218;2022-11-23T08:14:54;6.07;;;4.80;;
9234;SDS011;4652;42.716;23.218;2022-11-23T08:21:36;4.60;;;4.20;;
9234;SDS011;4652;42.716;23.218;2022-11-23T08:28:27;8.10;;;5.60;;
9234;SDS011;4652;42.716;23.218;2022-11-23T08:35:11;4.00;;;2.43;;
9234;SDS011;4652;42.716;23.218;2022-11-23T08:42:14;3.97;;;3.63;;
9234;SDS011;4652;42.716;23.218;2022-11-23T08:48:57;10.23;;;9.17;;
9234;SDS011;4652;42.716;23.218;2022-11-23T08:55:40;8.47;;;7.10;;
9234;SDS011;4652;42.716;23.218;2022-11-23T09:02:23;1.70;;;1.10;;
9234;SDS011;4652;42.716;23.218;2022-11-23T09:09:07;3.00;;;1.17;;
9234;SDS011;4652;42.716;23.218;2022-11-23T09:15:48;1.00;;;0.70;;
9234;SDS011;4652;42.716;23.218;2022-11-23T09:22:30;1.07;;;0.70;;
9234;SDS011;4652;42.716;23.218;2022-11-23T09:29:15;1.57;;;0.93;;
9234;SDS011;4652;42.716;23.218;2022-11-23T09:35:58;1.47;;;0.90;;
9234;SDS011;4652;42.716;23.218;2022-11-23T09:42:49;2.77;;;0.90;;
9234;SDS011;4652;42.716;23.218;2022-11-23T09:49:42;1.50;;;0.80;;
9234;SDS011;4652;42.716;23.218;2022-11-23T09:56:31;2.40;;;0.80;;
9234;SDS011;4652;42.716;23.218;2022-11-23T10:03:16;2.00;;;0.60;;
9234;SDS011;4652;42.716;23.218;2022-11-23T10:10:02;1.80;;;0.90;;
9234;SDS011;4652;42.716;23.218;2022-11-23T10:16:56;0.80;;;0.50;;
9234;SDS011;4652;42.716;23.218;2022-11-23T10:23:51;1.20;;;0.57;;
9234;SDS011;4652;42.716;23.218;2022-11-23T10:30:36;1.63;;;0.50;;
9234;SDS011;4652;42.716;23.218;2022-11-23T10:37:19;1.07;;;0.70;;
9234;SDS011;4652;42.716;23.218;2022-11-23T10:44:02;1.27;;;0.50;;
9234;SDS011;4652;42.716;23.218;2022-11-23T10:50:54;1.43;;;0.60;;
9234;SDS011;4652;42.716;23.218;2022-11-23T10:57:56;0.80;;;0.37;;
9234;SDS011;4652;42.716;23.218;2022-11-23T11:04:39;2.67;;;0.57;;
9234;SDS011;4652;42.716;23.218;2022-11-23T11:11:23;1.53;;;0.67;;
9234;SDS011;4652;42.716;23.218;2022-11-23T11:18:15;1.17;;;0.30;;
9234;SDS011;4652;42.716;23.218;2022-11-23T11:24:59;1.17;;;0.50;;
9234;SDS011;4652;42.716;23.218;2022-11-23T11:31:45;1.03;;;0.60;;
9234;SDS011;4652;42.716;23.218;2022-11-23T11:38:34;1.00;;;0.40;;
9234;SDS011;4652;42.716;23.218;2022-11-23T11:45:20;1.20;;;0.47;;
9234;SDS011;4652;42.716;23.218;2022-11-23T11:52:06;1.10;;;0.60;;
9234;SDS011;4652;42.716;23.218;2022-11-23T11:58:55;0.93;;;0.40;;
9234;SDS011;4652;42.716;23.218;2022-11-23T12:05:45;0.87;;;0.50;;
9234;SDS011;4652;42.716;23.218;2022-11-23T12:12:31;0.40;;;0.40;;
9234;SDS011;4652;42.716;23.218;2022-11-23T12:19:17;0.50;;;0.40;;
9234;SDS011;4652;42.716;23.218;2022-11-23T12:26:06;1.77;;;0.60;;
9234;SDS011;4652;42.716;23.218;2022-11-23T12:33:03;1.00;;;0.60;;
9234;SDS011;4652;42.716;23.218;2022-11-23T12:40:05;1.63;;;0.70;;
9234;SDS011;4652;42.716;23.218;2022-11-23T12:47:01;1.20;;;0.70;;
9234;SDS011;4652;42.716;23.218;2022-11-23T12:54:00;2.07;;;0.77;;
9234;SDS011;4652;42.716;23.218;2022-11-23T13:00:56;1.43;;;0.87;;
9234;SDS011;4652;42.716;23.218;2022-11-23T13:07:55;1.53;;;0.63;;
9234;SDS011;4652;42.716;23.218;2022-11-23T13:15:02;1.30;;;0.63;;
9234;SDS011;4652;42.716;23.218;2022-11-23T13:21:59;3.67;;;0.93;;
9234;SDS011;4652;42.716;23.218;2022-11-23T13:28:42;1.27;;;0.70;;
9234;SDS011;4652;42.716;23.218;2022-11-23T13:35:47;2.13;;;1.00;;
9234;SDS011;4652;42.716;23.218;2022-11-23T13:42:37;1.80;;;0.90;;
9234;SDS011;4652;42.716;23.218;2022-11-23T13:49:27;1.97;;;0.80;;
9234;SDS011;4652;42.716;23.218;2022-11-23T13:56:20;1.37;;;0.70;;
9234;SDS011;4652;42.716;23.218;2022-11-23T15:45:41;3.27;;;1.10;;
9234;SDS011;4652;42.716;23.218;2022-11-23T15:52:41;2.87;;;0.90;;
9234;SDS011;4652;42.716;23.218;2022-11-23T20:08:11;7.03;;;3.63;;
9234;SDS011;4652;42.716;23.218;2022-11-23T20:14:53;6.97;;;3.70;;
9234;SDS011;4652;42.716;23.218;2022-11-23T20:21:37;7.63;;;4.33;;
9234;SDS011;4652;42.716;23.218;2022-11-23T20:28:20;11.03;;;4.70;;
9234;SDS011;4652;42.716;23.218;2022-11-23T20:35:02;8.27;;;4.20;;
9234;SDS011;4652;42.716;23.218;2022-11-23T20:41:44;5.53;;;3.70;;
9234;SDS011;4652;42.716;23.218;2022-11-23T20:48:30;7.13;;;3.90;;
9234;SDS011;4652;42.716;23.218;2022-11-23T20:55:12;6.30;;;3.30;;
9234;SDS011;4652;42.716;23.218;2022-11-23T21:02:01;3.93;;;2.37;;
9234;SDS011;4652;42.716;23.218;2022-11-23T21:08:45;4.50;;;1.60;;
9234;SDS011;4652;42.716;23.218;2022-11-23T21:15:30;3.03;;;1.40;;
9234;SDS011;4652;42.716;23.218;2022-11-23T21:22:13;3.60;;;1.50;;
9234;SDS011;4652;42.716;23.218;2022-11-23T21:28:57;6.27;;;1.30;;
9234;SDS011;4652;42.716;23.218;2022-11-23T21:35:40;3.43;;;1.43;;
9234;SDS011;4652;42.716;23.218;2022-11-23T21:42:21;4.43;;;1.40;;
9234;SDS011;4652;42.716;23.218;2022-11-23T21:49:05;3.20;;;1.00;;
9234;SDS011;4652;42.716;23.218;2022-11-23T21:55:48;0.97;;;0.80;;
9234;SDS011;4652;42.716;23.218;2022-11-23T22:02:30;1.97;;;0.97;;
9234;SDS011;4652;42.716;23.218;2022-11-23T22:09:13;3.33;;;1.43;;
9234;SDS011;4652;42.716;23.218;2022-11-23T22:15:56;11.03;;;4.10;;
9234;SDS011;4652;42.716;23.218;2022-11-23T22:22:38;21.50;;;11.83;;
9234;SDS011;4652;42.716;23.218;2022-11-23T22:29:21;28.83;;;15.27;;
9234;SDS011;4652;42.716;23.218;2022-11-23T22:36:04;22.63;;;12.83;;
9234;SDS011;4652;42.716;23.218;2022-11-23T22:42:47;17.40;;;12.03;;
9234;SDS011;4652;42.716;23.218;2022-11-23T22:49:31;23.30;;;13.57;;
9234;SDS011;4652;42.716;23.218;2022-11-23T22:56:14;14.67;;;9.80;;
9234;SDS011;4652;42.716;23.218;2022-11-23T23:02:57;17.10;;;11.50;;
9234;SDS011;4652;42.716;23.218;2022-11-23T23:09:40;15.63;;;12.37;;
9234;SDS011;4652;42.716;23.218;2022-11-23T23:16:22;23.20;;;14.37;;
9234;SDS011;4652;42.716;23.218;2022-11-23T23:23:05;16.53;;;11.40;;
9234;SDS011;4652;42.716;23.218;2022-11-23T23:29:48;15.30;;;11.07;;
9234;SDS011;4652;42.716;23.218;2022-11-23T23:36:31;18.60;;;11.93;;
9234;SDS011;4652;42.716;23.218;2022-11-23T23:43:16;17.83;;;11.73;;
9234;SDS011;4652;42.716;23.218;2022-11-23T23:49:59;16.70;;;10.93;;
9234;SDS011;4652;42.716;23.218;2022-11-23T23:56:41;18.03;;;11.93;;
